Owensville, MO

6:25 PM CST on December 17, 2014 (GMT -0600)
Second Creek | Change Station
CLOSE
Current Station
Personal Weather Station
Location: Drake, MO
Elevation: 889 ft
Nearby Weather Stations
Active Advisory: Winter Weather Advisory

Elev 889 ft 38.46 °N, 91.48 °W | Updated 9 seconds ago

Overcast
Overcast
33.1 °F
Feels Like 33 °F
N
0.0
Wind Variable Wind from NNW
Gusts 0.0 mph

Today
High -- | Low -- °F
--% Chance of Precip.
Yesterday
High -- | Low -- °F
Precip. -- in
7:17 AM 4:47 PM
Waning Crescent, 18% visible
Pressure 30.27 in
Visibility 10.0 miles
Clouds Overcast 9000 ft
Windchill 33 °F
Dew Point 26 °F
Humidity 75%
Rainfall 0.00 in
Snow Depth Not available.
UV 0 out of 12
Pollen .20 out of 12
Air Quality Not available.
Flu Activity Not available.
METAR KVIH 172353Z AUTO 05003KT 10SM OVC090 01/M05 A3023 RMK AO2 SLP249 T00111050 10011 20006 55002

More Conditions Fewer Conditions

Pressure 30.27 in
Visibility 10.0 miles
Clouds Overcast 9000 ft
Windchill 33 °F
Dew Point 26 °F
Humidity 75%
Rainfall 0.00 in
Snow Depth Not available.
UV 0 out of 12
Pollen .20 out of 12
Air Quality Not available.
Flu Activity Not available.
METAR KVIH 172353Z AUTO 05003KT 10SM OVC090 01/M05 A3023 RMK AO2 SLP249 T00111050 10011 20006 55002

More Conditions Fewer Conditions

10-Day Weather Forecast

Almanac

Astronomy

Dec. 17, 2014 Rise Set
Actual Time
Civil Twilight
Nautical Twilight
Astronomical Twilight
Moon
Length of Visible Light
Length of Day
Tomorrow will be .
, % of the Moon is Illuminated

Today's Extremes

State Highs State Lows

Community

WunderPhotos

Upload Photos

1,778,835 photos uploaded!

WunderBlogs® & News

Nearby

Air Quality

  Air Quality AQ Index Pollutant
Not available.

Snow Depth

Station Depth Elevation

Earthquake Activity

City Distance Mag. Time & Date
Minimum magnitude displayed is 2.5.

Coastal Water Temperatures

Place Temperature

Nearby Weather Stations